sensor_id;sensor_type;location;lat;lon;timestamp;P1;durP1;ratioP1;P2;durP2;ratioP2
62941;SDS011;49042;47.318;19.874;2024-03-08T00:01:45;61.45;;;30.73;;
62941;SDS011;49042;47.318;19.874;2024-03-08T00:04:47;60.10;;;32.60;;
62941;SDS011;49042;47.318;19.874;2024-03-08T00:07:49;55.50;;;30.70;;
62941;SDS011;49042;47.318;19.874;2024-03-08T00:10:51;55.65;;;31.65;;
62941;SDS011;49042;47.318;19.874;2024-03-08T00:13:53;64.50;;;33.10;;
62941;SDS011;49042;47.318;19.874;2024-03-08T00:16:54;55.63;;;30.23;;
62941;SDS011;49042;47.318;19.874;2024-03-08T00:19:56;60.40;;;31.52;;
62941;SDS011;49042;47.318;19.874;2024-03-08T00:22:58;56.50;;;30.35;;
62941;SDS011;49042;47.318;19.874;2024-03-08T00:26:00;57.58;;;31.75;;
62941;SDS011;49042;47.318;19.874;2024-03-08T00:29:02;58.30;;;30.58;;
62941;SDS011;49042;47.318;19.874;2024-03-08T00:32:04;59.53;;;30.15;;
62941;SDS011;49042;47.318;19.874;2024-03-08T00:35:06;55.08;;;28.67;;
62941;SDS011;49042;47.318;19.874;2024-03-08T00:38:09;55.65;;;30.50;;
62941;SDS011;49042;47.318;19.874;2024-03-08T00:41:11;59.50;;;32.47;;
62941;SDS011;49042;47.318;19.874;2024-03-08T00:44:12;62.15;;;30.75;;
62941;SDS011;49042;47.318;19.874;2024-03-08T00:47:14;55.53;;;30.83;;
62941;SDS011;49042;47.318;19.874;2024-03-08T00:50:16;57.60;;;29.95;;
62941;SDS011;49042;47.318;19.874;2024-03-08T00:53:19;52.62;;;29.80;;
62941;SDS011;49042;47.318;19.874;2024-03-08T00:56:21;57.80;;;31.45;;
62941;SDS011;49042;47.318;19.874;2024-03-08T00:59:22;58.63;;;30.55;;
62941;SDS011;49042;47.318;19.874;2024-03-08T01:02:24;56.70;;;31.33;;
62941;SDS011;49042;47.318;19.874;2024-03-08T01:05:26;58.05;;;30.10;;
62941;SDS011;49042;47.318;19.874;2024-03-08T01:08:28;55.85;;;31.08;;
62941;SDS011;49042;47.318;19.874;2024-03-08T01:11:30;60.22;;;31.25;;
62941;SDS011;49042;47.318;19.874;2024-03-08T01:14:32;58.53;;;31.25;;
62941;SDS011;49042;47.318;19.874;2024-03-08T01:17:34;56.92;;;31.45;;
62941;SDS011;49042;47.318;19.874;2024-03-08T01:20:36;56.78;;;31.17;;
62941;SDS011;49042;47.318;19.874;2024-03-08T01:23:38;59.47;;;30.20;;
62941;SDS011;49042;47.318;19.874;2024-03-08T01:26:40;55.63;;;31.83;;
62941;SDS011;49042;47.318;19.874;2024-03-08T01:29:42;55.55;;;30.30;;
62941;SDS011;49042;47.318;19.874;2024-03-08T01:32:44;57.10;;;31.20;;
62941;SDS011;49042;47.318;19.874;2024-03-08T01:35:46;56.83;;;30.02;;
62941;SDS011;49042;47.318;19.874;2024-03-08T01:38:47;60.25;;;32.00;;
62941;SDS011;49042;47.318;19.874;2024-03-08T01:41:49;57.70;;;31.77;;
62941;SDS011;49042;47.318;19.874;2024-03-08T01:44:51;55.60;;;30.70;;
62941;SDS011;49042;47.318;19.874;2024-03-08T01:47:53;50.60;;;29.77;;
62941;SDS011;49042;47.318;19.874;2024-03-08T01:50:55;55.28;;;29.63;;
62941;SDS011;49042;47.318;19.874;2024-03-08T01:54:00;59.75;;;30.50;;
62941;SDS011;49042;47.318;19.874;2024-03-08T01:57:05;56.75;;;30.52;;
62941;SDS011;49042;47.318;19.874;2024-03-08T02:00:07;55.28;;;30.48;;
62941;SDS011;49042;47.318;19.874;2024-03-08T02:03:12;52.88;;;29.05;;
62941;SDS011;49042;47.318;19.874;2024-03-08T02:06:14;51.67;;;29.95;;
62941;SDS011;49042;47.318;19.874;2024-03-08T02:09:17;56.58;;;32.58;;
62941;SDS011;49042;47.318;19.874;2024-03-08T02:12:19;59.17;;;29.87;;
62941;SDS011;49042;47.318;19.874;2024-03-08T02:15:24;55.17;;;29.63;;
62941;SDS011;49042;47.318;19.874;2024-03-08T02:18:28;53.85;;;29.02;;
62941;SDS011;49042;47.318;19.874;2024-03-08T02:21:31;49.83;;;28.70;;
62941;SDS011;49042;47.318;19.874;2024-03-08T02:24:33;52.00;;;31.23;;
62941;SDS011;49042;47.318;19.874;2024-03-08T02:27:35;54.65;;;28.83;;
62941;SDS011;49042;47.318;19.874;2024-03-08T02:30:37;57.40;;;29.52;;
62941;SDS011;49042;47.318;19.874;2024-03-08T02:33:39;59.55;;;30.42;;
62941;SDS011;49042;47.318;19.874;2024-03-08T02:36:41;55.28;;;29.98;;
62941;SDS011;49042;47.318;19.874;2024-03-08T02:39:43;56.15;;;28.95;;
62941;SDS011;49042;47.318;19.874;2024-03-08T02:42:45;56.25;;;30.20;;
62941;SDS011;49042;47.318;19.874;2024-03-08T02:45:47;56.78;;;29.75;;
62941;SDS011;49042;47.318;19.874;2024-03-08T02:48:49;58.78;;;30.75;;
62941;SDS011;49042;47.318;19.874;2024-03-08T02:51:51;53.10;;;30.40;;
62941;SDS011;49042;47.318;19.874;2024-03-08T02:54:52;52.72;;;30.83;;
62941;SDS011;49042;47.318;19.874;2024-03-08T02:57:54;57.80;;;29.42;;
62941;SDS011;49042;47.318;19.874;2024-03-08T03:00:56;54.25;;;30.27;;
62941;SDS011;49042;47.318;19.874;2024-03-08T03:03:59;60.12;;;31.12;;
62941;SDS011;49042;47.318;19.874;2024-03-08T03:07:00;54.70;;;32.13;;
62941;SDS011;49042;47.318;19.874;2024-03-08T03:10:02;59.38;;;30.50;;
62941;SDS011;49042;47.318;19.874;2024-03-08T03:13:04;55.20;;;29.60;;
62941;SDS011;49042;47.318;19.874;2024-03-08T03:16:06;55.90;;;30.23;;
62941;SDS011;49042;47.318;19.874;2024-03-08T03:19:08;56.53;;;30.02;;
62941;SDS011;49042;47.318;19.874;2024-03-08T03:22:10;52.25;;;28.77;;
62941;SDS011;49042;47.318;19.874;2024-03-08T03:25:12;56.03;;;30.05;;
62941;SDS011;49042;47.318;19.874;2024-03-08T03:28:14;61.72;;;31.37;;
62941;SDS011;49042;47.318;19.874;2024-03-08T03:31:19;58.22;;;30.60;;
62941;SDS011;49042;47.318;19.874;2024-03-08T03:34:21;61.10;;;30.45;;
62941;SDS011;49042;47.318;19.874;2024-03-08T03:37:24;56.67;;;29.27;;
62941;SDS011;49042;47.318;19.874;2024-03-08T03:40:25;56.58;;;28.98;;
62941;SDS011;49042;47.318;19.874;2024-03-08T03:43:27;52.88;;;28.48;;
62941;SDS011;49042;47.318;19.874;2024-03-08T03:46:29;49.00;;;27.67;;
62941;SDS011;49042;47.318;19.874;2024-03-08T03:49:31;55.10;;;28.80;;
62941;SDS011;49042;47.318;19.874;2024-03-08T03:52:33;54.88;;;29.55;;
62941;SDS011;49042;47.318;19.874;2024-03-08T03:55:35;57.22;;;29.35;;
62941;SDS011;49042;47.318;19.874;2024-03-08T03:58:38;52.83;;;28.80;;
62941;SDS011;49042;47.318;19.874;2024-03-08T04:01:43;59.42;;;29.70;;
62941;SDS011;49042;47.318;19.874;2024-03-08T04:04:46;57.70;;;28.75;;
62941;SDS011;49042;47.318;19.874;2024-03-08T04:07:49;59.20;;;28.25;;
62941;SDS011;49042;47.318;19.874;2024-03-08T04:10:50;63.30;;;30.30;;
62941;SDS011;49042;47.318;19.874;2024-03-08T04:13:52;55.33;;;28.65;;
62941;SDS011;49042;47.318;19.874;2024-03-08T04:16:55;53.58;;;29.48;;
62941;SDS011;49042;47.318;19.874;2024-03-08T04:19:57;53.85;;;28.95;;
62941;SDS011;49042;47.318;19.874;2024-03-08T04:22:59;58.15;;;27.52;;
62941;SDS011;49042;47.318;19.874;2024-03-08T04:26:01;56.47;;;30.73;;
62941;SDS011;49042;47.318;19.874;2024-03-08T04:29:07;64.22;;;31.05;;
62941;SDS011;49042;47.318;19.874;2024-03-08T04:32:09;55.80;;;29.42;;
62941;SDS011;49042;47.318;19.874;2024-03-08T04:35:11;59.75;;;31.50;;
62941;SDS011;49042;47.318;19.874;2024-03-08T04:38:14;54.53;;;29.10;;
62941;SDS011;49042;47.318;19.874;2024-03-08T04:41:17;59.78;;;29.48;;
62941;SDS011;49042;47.318;19.874;2024-03-08T04:44:19;63.60;;;31.50;;
62941;SDS011;49042;47.318;19.874;2024-03-08T04:47:21;54.33;;;29.42;;
62941;SDS011;49042;47.318;19.874;2024-03-08T04:50:23;59.25;;;30.85;;
62941;SDS011;49042;47.318;19.874;2024-03-08T04:53:25;55.60;;;29.92;;
62941;SDS011;49042;47.318;19.874;2024-03-08T04:56:27;63.10;;;30.92;;
62941;SDS011;49042;47.318;19.874;2024-03-08T04:59:29;61.47;;;30.80;;
62941;SDS011;49042;47.318;19.874;2024-03-08T05:02:30;58.65;;;29.95;;
62941;SDS011;49042;47.318;19.874;2024-03-08T05:05:33;53.45;;;28.83;;
62941;SDS011;49042;47.318;19.874;2024-03-08T05:08:35;56.22;;;30.55;;
62941;SDS011;49042;47.318;19.874;2024-03-08T05:11:36;65.43;;;29.27;;
62941;SDS011;49042;47.318;19.874;2024-03-08T05:14:38;57.20;;;29.10;;
62941;SDS011;49042;47.318;19.874;2024-03-08T05:17:40;51.13;;;28.75;;
62941;SDS011;49042;47.318;19.874;2024-03-08T05:20:43;57.53;;;28.50;;
62941;SDS011;49042;47.318;19.874;2024-03-08T05:23:45;52.78;;;28.50;;
62941;SDS011;49042;47.318;19.874;2024-03-08T05:26:47;57.95;;;30.10;;
62941;SDS011;49042;47.318;19.874;2024-03-08T05:29:49;55.97;;;29.27;;
62941;SDS011;49042;47.318;19.874;2024-03-08T05:32:51;60.90;;;30.00;;
62941;SDS011;49042;47.318;19.874;2024-03-08T05:35:53;58.87;;;29.67;;
62941;SDS011;49042;47.318;19.874;2024-03-08T05:38:55;52.72;;;28.40;;
62941;SDS011;49042;47.318;19.874;2024-03-08T05:41:57;51.92;;;28.23;;
62941;SDS011;49042;47.318;19.874;2024-03-08T05:44:58;51.97;;;28.45;;
62941;SDS011;49042;47.318;19.874;2024-03-08T05:48:00;54.88;;;28.58;;
62941;SDS011;49042;47.318;19.874;2024-03-08T05:51:02;59.47;;;29.67;;
62941;SDS011;49042;47.318;19.874;2024-03-08T05:54:05;58.25;;;28.92;;
62941;SDS011;49042;47.318;19.874;2024-03-08T05:57:08;64.00;;;29.67;;
62941;SDS011;49042;47.318;19.874;2024-03-08T06:00:10;60.28;;;31.02;;
62941;SDS011;49042;47.318;19.874;2024-03-08T06:03:12;57.35;;;30.48;;
62941;SDS011;49042;47.318;19.874;2024-03-08T06:06:15;74.03;;;35.13;;
62941;SDS011;49042;47.318;19.874;2024-03-08T06:09:16;64.62;;;31.15;;
62941;SDS011;49042;47.318;19.874;2024-03-08T06:12:19;73.47;;;32.85;;
62941;SDS011;49042;47.318;19.874;2024-03-08T06:15:21;75.22;;;33.20;;
62941;SDS011;49042;47.318;19.874;2024-03-08T06:18:23;70.70;;;33.75;;
62941;SDS011;49042;47.318;19.874;2024-03-08T06:21:24;70.35;;;33.33;;
62941;SDS011;49042;47.318;19.874;2024-03-08T06:24:29;68.95;;;34.30;;
62941;SDS011;49042;47.318;19.874;2024-03-08T06:27:31;65.32;;;31.67;;
62941;SDS011;49042;47.318;19.874;2024-03-08T06:30:35;66.28;;;32.15;;
62941;SDS011;49042;47.318;19.874;2024-03-08T06:33:36;62.10;;;31.48;;
62941;SDS011;49042;47.318;19.874;2024-03-08T06:36:38;59.58;;;30.25;;
62941;SDS011;49042;47.318;19.874;2024-03-08T06:39:41;58.00;;;30.15;;
62941;SDS011;49042;47.318;19.874;2024-03-08T06:42:42;60.78;;;30.95;;
62941;SDS011;49042;47.318;19.874;2024-03-08T06:45:47;67.72;;;33.58;;
62941;SDS011;49042;47.318;19.874;2024-03-08T06:48:52;70.80;;;32.15;;
62941;SDS011;49042;47.318;19.874;2024-03-08T06:51:53;69.57;;;35.00;;
62941;SDS011;49042;47.318;19.874;2024-03-08T06:54:55;65.60;;;35.53;;
62941;SDS011;49042;47.318;19.874;2024-03-08T06:57:58;54.10;;;30.62;;
62941;SDS011;49042;47.318;19.874;2024-03-08T07:01:00;59.78;;;31.02;;
62941;SDS011;49042;47.318;19.874;2024-03-08T07:04:05;55.28;;;29.50;;
62941;SDS011;49042;47.318;19.874;2024-03-08T07:07:07;63.40;;;30.90;;
62941;SDS011;49042;47.318;19.874;2024-03-08T07:10:12;58.72;;;29.87;;
62941;SDS011;49042;47.318;19.874;2024-03-08T07:13:16;58.45;;;30.08;;
62941;SDS011;49042;47.318;19.874;2024-03-08T07:16:18;60.10;;;30.88;;
62941;SDS011;49042;47.318;19.874;2024-03-08T07:19:20;60.35;;;31.92;;
62941;SDS011;49042;47.318;19.874;2024-03-08T07:22:23;61.25;;;29.87;;
62941;SDS011;49042;47.318;19.874;2024-03-08T07:25:25;58.83;;;29.98;;
62941;SDS011;49042;47.318;19.874;2024-03-08T07:28:30;57.40;;;29.35;;
62941;SDS011;49042;47.318;19.874;2024-03-08T07:31:32;67.70;;;32.88;;
62941;SDS011;49042;47.318;19.874;2024-03-08T07:34:43;63.28;;;30.60;;
62941;SDS011;49042;47.318;19.874;2024-03-08T07:37:44;57.25;;;29.42;;
62941;SDS011;49042;47.318;19.874;2024-03-08T07:40:47;62.65;;;31.48;;
62941;SDS011;49042;47.318;19.874;2024-03-08T07:43:49;58.40;;;29.35;;
62941;SDS011;49042;47.318;19.874;2024-03-08T07:46:51;56.78;;;29.75;;
62941;SDS011;49042;47.318;19.874;2024-03-08T07:49:57;56.72;;;29.17;;
62941;SDS011;49042;47.318;19.874;2024-03-08T07:53:02;59.35;;;29.50;;
62941;SDS011;49042;47.318;19.874;2024-03-08T07:56:05;55.08;;;30.55;;
62941;SDS011;49042;47.318;19.874;2024-03-08T07:59:07;57.70;;;30.75;;
62941;SDS011;49042;47.318;19.874;2024-03-08T08:02:09;62.20;;;30.55;;
62941;SDS011;49042;47.318;19.874;2024-03-08T08:05:11;52.20;;;28.33;;
62941;SDS011;49042;47.318;19.874;2024-03-08T08:08:13;53.67;;;28.23;;
62941;SDS011;49042;47.318;19.874;2024-03-08T08:11:15;57.58;;;29.65;;
62941;SDS011;49042;47.318;19.874;2024-03-08T08:14:17;52.72;;;28.50;;
62941;SDS011;49042;47.318;19.874;2024-03-08T08:17:19;52.60;;;27.27;;
62941;SDS011;49042;47.318;19.874;2024-03-08T08:20:21;52.95;;;27.98;;
62941;SDS011;49042;47.318;19.874;2024-03-08T08:23:24;50.75;;;26.75;;
62941;SDS011;49042;47.318;19.874;2024-03-08T08:26:26;55.28;;;28.70;;
62941;SDS011;49042;47.318;19.874;2024-03-08T08:29:28;55.92;;;29.17;;
62941;SDS011;49042;47.318;19.874;2024-03-08T08:32:29;56.75;;;28.25;;
62941;SDS011;49042;47.318;19.874;2024-03-08T08:35:31;57.33;;;27.73;;
62941;SDS011;49042;47.318;19.874;2024-03-08T08:38:34;52.92;;;27.77;;
62941;SDS011;49042;47.318;19.874;2024-03-08T08:41:36;53.60;;;27.55;;
62941;SDS011;49042;47.318;19.874;2024-03-08T08:44:37;55.42;;;28.20;;
62941;SDS011;49042;47.318;19.874;2024-03-08T08:47:39;58.17;;;28.52;;
62941;SDS011;49042;47.318;19.874;2024-03-08T08:50:44;58.17;;;29.40;;
62941;SDS011;49042;47.318;19.874;2024-03-08T08:53:46;57.95;;;28.60;;
62941;SDS011;49042;47.318;19.874;2024-03-08T08:56:49;52.62;;;26.45;;
62941;SDS011;49042;47.318;19.874;2024-03-08T08:59:51;50.67;;;26.67;;
62941;SDS011;49042;47.318;19.874;2024-03-08T09:02:52;50.65;;;26.33;;
62941;SDS011;49042;47.318;19.874;2024-03-08T09:05:56;51.50;;;26.73;;
62941;SDS011;49042;47.318;19.874;2024-03-08T09:08:58;47.47;;;26.20;;
62941;SDS011;49042;47.318;19.874;2024-03-08T09:12:01;43.70;;;23.90;;
62941;SDS011;49042;47.318;19.874;2024-03-08T09:15:03;48.55;;;25.25;;
62941;SDS011;49042;47.318;19.874;2024-03-08T09:18:06;46.70;;;25.92;;
62941;SDS011;49042;47.318;19.874;2024-03-08T09:21:08;49.97;;;26.52;;
62941;SDS011;49042;47.318;19.874;2024-03-08T09:24:14;48.17;;;25.58;;
62941;SDS011;49042;47.318;19.874;2024-03-08T09:27:17;49.63;;;25.88;;
62941;SDS011;49042;47.318;19.874;2024-03-08T09:30:19;45.15;;;24.95;;
62941;SDS011;49042;47.318;19.874;2024-03-08T09:33:22;49.60;;;27.40;;
62941;SDS011;49042;47.318;19.874;2024-03-08T09:36:24;49.67;;;26.73;;
62941;SDS011;49042;47.318;19.874;2024-03-08T09:39:26;45.70;;;26.30;;
62941;SDS011;49042;47.318;19.874;2024-03-08T09:42:31;47.92;;;26.52;;
62941;SDS011;49042;47.318;19.874;2024-03-08T09:45:35;48.72;;;24.70;;
62941;SDS011;49042;47.318;19.874;2024-03-08T09:48:43;46.35;;;25.62;;
62941;SDS011;49042;47.318;19.874;2024-03-08T09:51:44;46.72;;;25.85;;
62941;SDS011;49042;47.318;19.874;2024-03-08T09:54:47;49.35;;;24.73;;
62941;SDS011;49042;47.318;19.874;2024-03-08T09:57:49;50.42;;;26.58;;
62941;SDS011;49042;47.318;19.874;2024-03-08T10:01:12;46.58;;;25.23;;
62941;SDS011;49042;47.318;19.874;2024-03-08T10:04:14;66.85;;;26.25;;
62941;SDS011;49042;47.318;19.874;2024-03-08T10:07:15;48.17;;;26.73;;
62941;SDS011;49042;47.318;19.874;2024-03-08T10:10:17;45.85;;;25.58;;
62941;SDS011;49042;47.318;19.874;2024-03-08T10:13:19;55.12;;;24.92;;
62941;SDS011;49042;47.318;19.874;2024-03-08T10:16:22;43.65;;;24.10;;
62941;SDS011;49042;47.318;19.874;2024-03-08T10:19:25;48.70;;;25.20;;
62941;SDS011;49042;47.318;19.874;2024-03-08T10:22:28;43.10;;;24.67;;
62941;SDS011;49042;47.318;19.874;2024-03-08T10:25:31;51.33;;;25.48;;
62941;SDS011;49042;47.318;19.874;2024-03-08T10:28:33;41.05;;;23.35;;
62941;SDS011;49042;47.318;19.874;2024-03-08T10:31:35;48.10;;;26.55;;
62941;SDS011;49042;47.318;19.874;2024-03-08T10:34:37;44.72;;;24.30;;
62941;SDS011;49042;47.318;19.874;2024-03-08T10:37:46;43.15;;;24.58;;
62941;SDS011;49042;47.318;19.874;2024-03-08T10:40:49;43.28;;;23.77;;
62941;SDS011;49042;47.318;19.874;2024-03-08T10:47:29;48.65;;;25.58;;
62941;SDS011;49042;47.318;19.874;2024-03-08T10:50:32;46.45;;;24.75;;
62941;SDS011;49042;47.318;19.874;2024-03-08T10:53:35;53.72;;;24.42;;
62941;SDS011;49042;47.318;19.874;2024-03-08T10:56:40;42.67;;;22.25;;
62941;SDS011;49042;47.318;19.874;2024-03-08T10:59:42;59.25;;;27.42;;
62941;SDS011;49042;47.318;19.874;2024-03-08T11:02:45;38.72;;;23.35;;
62941;SDS011;49042;47.318;19.874;2024-03-08T11:05:47;38.20;;;23.17;;
62941;SDS011;49042;47.318;19.874;2024-03-08T11:08:50;43.15;;;23.42;;
62941;SDS011;49042;47.318;19.874;2024-03-08T11:11:52;37.90;;;22.95;;
62941;SDS011;49042;47.318;19.874;2024-03-08T11:14:54;34.08;;;21.33;;
62941;SDS011;49042;47.318;19.874;2024-03-08T11:17:58;45.03;;;22.45;;
62941;SDS011;49042;47.318;19.874;2024-03-08T11:21:10;45.50;;;19.45;;
62941;SDS011;49042;47.318;19.874;2024-03-08T11:24:14;30.65;;;16.30;;
62941;SDS011;49042;47.318;19.874;2024-03-08T11:27:17;28.87;;;17.15;;
62941;SDS011;49042;47.318;19.874;2024-03-08T11:30:21;30.60;;;17.55;;
62941;SDS011;49042;47.318;19.874;2024-03-08T11:33:29;24.60;;;14.05;;
62941;SDS011;49042;47.318;19.874;2024-03-08T11:36:32;28.75;;;15.18;;
62941;SDS011;49042;47.318;19.874;2024-03-08T11:39:54;44.97;;;21.25;;
62941;SDS011;49042;47.318;19.874;2024-03-08T11:43:04;19.85;;;13.18;;
62941;SDS011;49042;47.318;19.874;2024-03-08T11:46:09;22.02;;;13.43;;
62941;SDS011;49042;47.318;19.874;2024-03-08T11:49:12;30.17;;;16.90;;
62941;SDS011;49042;47.318;19.874;2024-03-08T11:52:17;31.58;;;18.92;;
62941;SDS011;49042;47.318;19.874;2024-03-08T11:55:19;38.45;;;18.65;;
62941;SDS011;49042;47.318;19.874;2024-03-08T11:58:22;34.03;;;17.25;;
62941;SDS011;49042;47.318;19.874;2024-03-08T12:01:24;34.28;;;18.20;;
62941;SDS011;49042;47.318;19.874;2024-03-08T12:04:27;40.78;;;19.15;;
62941;SDS011;49042;47.318;19.874;2024-03-08T12:07:29;29.75;;;17.08;;
62941;SDS011;49042;47.318;19.874;2024-03-08T12:10:33;21.45;;;13.88;;
62941;SDS011;49042;47.318;19.874;2024-03-08T12:13:36;22.80;;;12.35;;
62941;SDS011;49042;47.318;19.874;2024-03-08T12:16:38;21.67;;;10.88;;
62941;SDS011;49042;47.318;19.874;2024-03-08T12:19:40;25.73;;;14.48;;
62941;SDS011;49042;47.318;19.874;2024-03-08T12:22:47;22.92;;;12.55;;
62941;SDS011;49042;47.318;19.874;2024-03-08T12:25:50;21.45;;;11.70;;
62941;SDS011;49042;47.318;19.874;2024-03-08T12:28:52;27.85;;;11.93;;
62941;SDS011;49042;47.318;19.874;2024-03-08T12:31:55;16.83;;;11.43;;
62941;SDS011;49042;47.318;19.874;2024-03-08T12:35:00;22.15;;;11.40;;
62941;SDS011;49042;47.318;19.874;2024-03-08T12:38:02;33.20;;;16.92;;
62941;SDS011;49042;47.318;19.874;2024-03-08T12:41:04;42.08;;;21.48;;
62941;SDS011;49042;47.318;19.874;2024-03-08T12:44:06;38.45;;;22.10;;
62941;SDS011;49042;47.318;19.874;2024-03-08T12:47:12;42.88;;;23.50;;
62941;SDS011;49042;47.318;19.874;2024-03-08T12:50:14;44.95;;;22.37;;
62941;SDS011;49042;47.318;19.874;2024-03-08T12:53:18;44.85;;;23.58;;
62941;SDS011;49042;47.318;19.874;2024-03-08T12:56:28;46.90;;;25.02;;
62941;SDS011;49042;47.318;19.874;2024-03-08T12:59:32;52.47;;;24.40;;
62941;SDS011;49042;47.318;19.874;2024-03-08T13:02:33;39.45;;;22.83;;
62941;SDS011;49042;47.318;19.874;2024-03-08T13:05:37;51.60;;;23.83;;
62941;SDS011;49042;47.318;19.874;2024-03-08T13:08:41;42.92;;;21.55;;
62941;SDS011;49042;47.318;19.874;2024-03-08T13:11:45;39.05;;;22.65;;
62941;SDS011;49042;47.318;19.874;2024-03-08T13:14:47;40.05;;;20.92;;
62941;SDS011;49042;47.318;19.874;2024-03-08T13:17:49;37.00;;;20.73;;
62941;SDS011;49042;47.318;19.874;2024-03-08T13:20:51;29.35;;;18.87;;
62941;SDS011;49042;47.318;19.874;2024-03-08T13:23:53;35.63;;;17.40;;
62941;SDS011;49042;47.318;19.874;2024-03-08T13:26:56;26.95;;;15.38;;
62941;SDS011;49042;47.318;19.874;2024-03-08T13:29:59;22.77;;;13.93;;
62941;SDS011;49042;47.318;19.874;2024-03-08T13:33:01;16.62;;;11.90;;
62941;SDS011;49042;47.318;19.874;2024-03-08T13:36:06;27.45;;;15.40;;
62941;SDS011;49042;47.318;19.874;2024-03-08T13:39:16;21.02;;;13.02;;
62941;SDS011;49042;47.318;19.874;2024-03-08T13:42:17;18.77;;;12.10;;
62941;SDS011;49042;47.318;19.874;2024-03-08T13:45:20;23.12;;;12.82;;
62941;SDS011;49042;47.318;19.874;2024-03-08T13:48:26;29.12;;;12.68;;
62941;SDS011;49042;47.318;19.874;2024-03-08T13:51:27;23.30;;;11.32;;
62941;SDS011;49042;47.318;19.874;2024-03-08T13:54:29;23.25;;;11.77;;
62941;SDS011;49042;47.318;19.874;2024-03-08T13:57:32;17.85;;;11.75;;
62941;SDS011;49042;47.318;19.874;2024-03-08T14:00:35;25.17;;;10.82;;
62941;SDS011;49042;47.318;19.874;2024-03-08T14:03:37;25.02;;;12.48;;
62941;SDS011;49042;47.318;19.874;2024-03-08T14:06:43;23.25;;;12.05;;
62941;SDS011;49042;47.318;19.874;2024-03-08T14:09:51;24.95;;;11.82;;
62941;SDS011;49042;47.318;19.874;2024-03-08T14:12:54;20.70;;;11.68;;
62941;SDS011;49042;47.318;19.874;2024-03-08T14:15:56;18.17;;;11.52;;
62941;SDS011;49042;47.318;19.874;2024-03-08T14:18:58;22.45;;;11.43;;
62941;SDS011;49042;47.318;19.874;2024-03-08T14:22:05;21.75;;;11.30;;
62941;SDS011;49042;47.318;19.874;2024-03-08T14:25:06;16.95;;;11.07;;
62941;SDS011;49042;47.318;19.874;2024-03-08T14:28:18;17.87;;;10.30;;
62941;SDS011;49042;47.318;19.874;2024-03-08T14:31:20;17.52;;;10.68;;
62941;SDS011;49042;47.318;19.874;2024-03-08T14:34:27;18.27;;;10.88;;
62941;SDS011;49042;47.318;19.874;2024-03-08T14:37:30;18.77;;;10.82;;
62941;SDS011;49042;47.318;19.874;2024-03-08T14:40:32;15.82;;;10.73;;
62941;SDS011;49042;47.318;19.874;2024-03-08T14:43:34;16.20;;;10.43;;
62941;SDS011;49042;47.318;19.874;2024-03-08T14:46:36;19.45;;;10.88;;
62941;SDS011;49042;47.318;19.874;2024-03-08T14:49:38;21.30;;;12.82;;
62941;SDS011;49042;47.318;19.874;2024-03-08T14:52:41;32.78;;;11.18;;
62941;SDS011;49042;47.318;19.874;2024-03-08T14:55:44;26.37;;;11.70;;
62941;SDS011;49042;47.318;19.874;2024-03-08T14:58:48;21.25;;;11.35;;
62941;SDS011;49042;47.318;19.874;2024-03-08T15:01:53;22.05;;;12.37;;
62941;SDS011;49042;47.318;19.874;2024-03-08T15:04:55;22.00;;;12.10;;
62941;SDS011;49042;47.318;19.874;2024-03-08T15:08:02;22.15;;;11.98;;
62941;SDS011;49042;47.318;19.874;2024-03-08T15:11:12;19.98;;;10.65;;
62941;SDS011;49042;47.318;19.874;2024-03-08T15:14:23;19.62;;;11.43;;
62941;SDS011;49042;47.318;19.874;2024-03-08T15:17:26;21.25;;;11.40;;
62941;SDS011;49042;47.318;19.874;2024-03-08T15:20:28;18.92;;;11.43;;
62941;SDS011;49042;47.318;19.874;2024-03-08T15:23:34;22.17;;;11.43;;
62941;SDS011;49042;47.318;19.874;2024-03-08T15:26:37;19.77;;;10.98;;
62941;SDS011;49042;47.318;19.874;2024-03-08T15:29:39;21.87;;;11.77;;
62941;SDS011;49042;47.318;19.874;2024-03-08T15:32:44;23.35;;;12.52;;
62941;SDS011;49042;47.318;19.874;2024-03-08T15:35:46;33.25;;;15.73;;
62941;SDS011;49042;47.318;19.874;2024-03-08T15:38:51;71.40;;;26.77;;
62941;SDS011;49042;47.318;19.874;2024-03-08T15:41:53;60.33;;;30.12;;
62941;SDS011;49042;47.318;19.874;2024-03-08T15:44:56;41.83;;;25.77;;
62941;SDS011;49042;47.318;19.874;2024-03-08T15:47:58;23.10;;;15.35;;
62941;SDS011;49042;47.318;19.874;2024-03-08T15:51:00;27.95;;;15.52;;
62941;SDS011;49042;47.318;19.874;2024-03-08T15:54:03;30.02;;;17.50;;
62941;SDS011;49042;47.318;19.874;2024-03-08T15:57:05;30.80;;;16.80;;
62941;SDS011;49042;47.318;19.874;2024-03-08T16:00:18;29.95;;;17.12;;
62941;SDS011;49042;47.318;19.874;2024-03-08T16:03:35;31.67;;;19.75;;
62941;SDS011;49042;47.318;19.874;2024-03-08T16:06:37;43.38;;;21.52;;
62941;SDS011;49042;47.318;19.874;2024-03-08T16:09:41;82.03;;;37.55;;
62941;SDS011;49042;47.318;19.874;2024-03-08T16:12:43;69.28;;;33.15;;
62941;SDS011;49042;47.318;19.874;2024-03-08T16:15:45;74.97;;;31.50;;
62941;SDS011;49042;47.318;19.874;2024-03-08T16:18:51;34.80;;;17.98;;
62941;SDS011;49042;47.318;19.874;2024-03-08T16:21:53;39.08;;;21.42;;
62941;SDS011;49042;47.318;19.874;2024-03-08T16:24:55;50.72;;;23.62;;
62941;SDS011;49042;47.318;19.874;2024-03-08T16:27:57;41.72;;;21.30;;
62941;SDS011;49042;47.318;19.874;2024-03-08T16:30:59;51.83;;;24.80;;
62941;SDS011;49042;47.318;19.874;2024-03-08T16:34:00;50.72;;;22.83;;
62941;SDS011;49042;47.318;19.874;2024-03-08T16:37:02;33.10;;;18.17;;
62941;SDS011;49042;47.318;19.874;2024-03-08T16:40:04;34.42;;;18.75;;
62941;SDS011;49042;47.318;19.874;2024-03-08T16:43:07;36.30;;;18.00;;
62941;SDS011;49042;47.318;19.874;2024-03-08T16:46:15;31.35;;;20.02;;
62941;SDS011;49042;47.318;19.874;2024-03-08T16:49:18;27.52;;;17.25;;
62941;SDS011;49042;47.318;19.874;2024-03-08T16:52:19;32.05;;;16.75;;
62941;SDS011;49042;47.318;19.874;2024-03-08T16:55:23;31.62;;;18.52;;
62941;SDS011;49042;47.318;19.874;2024-03-08T16:58:25;47.95;;;20.25;;
62941;SDS011;49042;47.318;19.874;2024-03-08T17:01:27;50.85;;;23.45;;
62941;SDS011;49042;47.318;19.874;2024-03-08T17:04:30;48.50;;;24.00;;
62941;SDS011;49042;47.318;19.874;2024-03-08T17:07:32;48.40;;;25.12;;
62941;SDS011;49042;47.318;19.874;2024-03-08T17:10:37;40.47;;;23.20;;
62941;SDS011;49042;47.318;19.874;2024-03-08T17:13:41;36.75;;;22.20;;
62941;SDS011;49042;47.318;19.874;2024-03-08T17:16:42;42.28;;;23.08;;
62941;SDS011;49042;47.318;19.874;2024-03-08T17:19:44;39.92;;;22.45;;
62941;SDS011;49042;47.318;19.874;2024-03-08T17:22:55;44.17;;;25.27;;
62941;SDS011;49042;47.318;19.874;2024-03-08T17:26:03;41.08;;;25.35;;
62941;SDS011;49042;47.318;19.874;2024-03-08T17:29:09;50.47;;;25.42;;
62941;SDS011;49042;47.318;19.874;2024-03-08T17:32:11;39.38;;;23.45;;
62941;SDS011;49042;47.318;19.874;2024-03-08T17:35:13;43.47;;;23.35;;
62941;SDS011;49042;47.318;19.874;2024-03-08T17:38:17;35.58;;;19.52;;